Historyczne dane pomiarowe

Dodano dane terminowe – wersja testowa.

Dane z okresu 1951-2019

Wersja bazy: 1.34 [2019-03-16, lista zmian], aktualizacja planowana na 2019-04-15

Dane meteo z obszaru Polski uzyskane na podstawie danych udostępnionych przez Instytut Meteorologii i Gospodarki Wodnej – Państwowy Instytut Badawczy.

 

Wybierz Datę:    

       

TemperaturaWilgotnośćWiatrCiśnienieOpadyŚniegCzas trwania zjawisk
 Stacja t tx tn tng RH VA  wxwx mslp ppp RRR   cm mm wxwxwxwxwxwxwx
2019-07-25 24.5 33.5 12.5 11.4-- 0.0----- 0.0------------
2019-07-24 22.4 29.9 12.2 11.0-- 0.3----- 0.0------------
2019-07-23 20.8 25.7 16.1 16.2-- 5.3----- 0.0------------
2019-07-22 20.2 25.9 11.5 10.4-- 5.0----- 1.0------------
2019-07-21 22.1 27.8 16.1 15.7-- 2.3----- 0.0------------
2019-07-20 22.3 30.2 13.9 11.9-- 1.3----- 3.6------------
2019-07-19 19.4 27.4 9.1 7.5-- 6.0----- 0.0------------
2019-07-18 17.2 26.4 6.6 5.2-- 0.7----- 0.0------------
2019-07-17 17.7 23.0 10.9 9.0-- 4.0----- 0.0------------
2019-07-16 16.6 19.6 14.1 13.7-- 7.3----- 0.0------------
2019-07-15 16.8 23.2 10.8 8.8-- 2.3----- 0.0------------
2019-07-14 16.5 23.0 9.9 9.0-- 5.0----- 4.6------------
2019-07-13 17.0 22.1 13.8 12.5-- 4.0----- 10.0------------
2019-07-12 16.2 22.6 8.6 6.0-- 7.3----- 4.8------------
2019-07-11 18.4 23.3 10.9 8.2-- 2.3----- 0.0------------
2019-07-10 14.5 19.1 8.6 7.0-- 6.3----- 7.1------------
2019-07-09 15.2 20.4 6.9 3.5-- 3.0----- 0.0------------
2019-07-08 14.3 17.6 8.4 5.7-- 4.3----- 0.4------------
2019-07-07 15.9 20.5 11.5 11.0-- 4.7----- 0.0------------
2019-07-06 19.2 25.2 14.1 12.9-- 7.0----- 5.0------------
2019-07-05 17.4 22.1 11.5 9.1-- 7.7----- 0.0------------
2019-07-04 16.5 22.6 7.4 4.5-- 0.7----- 0.0------------
2019-07-03 15.3 20.6 7.6 5.2-- 3.0----- 0.0------------
2019-07-02 19.6 26.1 14.2 10.0-- 1.0----- 0.0------------
2019-07-01 25.0 32.7 18.8 15.3-- 2.3----- 0.0------------
2019-06-30 25.6 37.3 10.2 8.0-- 0.0----- 0.0------------
2019-06-29 22.0 30.8 9.8 7.2-- 0.0----- 0.0------------
2019-06-28 18.9 26.7 9.1 6.0-- 3.0----- 0.0------------
2019-06-27 23.5 34.7 17.1 16.7-- 0.0----- 0.0------------
2019-06-26 28.7 37.4 16.0 13.8-- 0.7----- 0.0------------
2019-06-25 24.7 32.8 15.0 12.4-- 0.0----- 0.0------------
2019-06-24 21.0 29.5 9.5 5.0-- 0.0----- 0.0------------
2019-06-23 20.2 26.8 13.0 9.8-- 0.7----- 0.0------------
2019-06-22 19.4 25.7 10.7 8.0-- 0.7----- 0.0------------
2019-06-21 21.6 26.9 16.0 14.8-- 4.0----- 0.1------------
2019-06-20 23.8 31.3 14.2 12.4-- 1.0----- 0.0------------
2019-06-19 23.4 30.6 15.1 12.4-- 1.7----- 0.0------------
2019-06-18 21.3 27.8 13.5 9.3-- 0.0----- 0.0------------
2019-06-17 19.6 26.8 9.5 8.0-- 0.7----- 0.0------------
2019-06-16 21.9 25.6 18.3 17.2-- 0.7----- 0.0------------
2019-06-15 25.3 33.8 18.1 17.2-- 3.0----- 4.3------------
2019-06-14 21.2 28.8 12.0 10.5-- 0.7----- 0.0------------
2019-06-13 21.9 28.7 17.6 17.2-- 5.3----- 0.0------------
2019-06-12 27.0 33.6 19.1 16.7-- 0.3----- 0.0------------
2019-06-11 26.5 33.8 18.3 17.7-- 1.0----- 0.0------------
2019-06-10 23.7 30.8 16.1 15.3-- 1.7----- 0.0------------
2019-06-09 17.5 26.7 5.5 4.0-- 1.0----- 0.0------------
2019-06-08 19.6 23.9 14.1 11.9-- 4.7----- 0.0------------
2019-06-07 20.3 24.2 16.7 16.7-- 3.7----- 0.0------------
2019-06-06 22.7 29.8 15.6 13.4-- 3.0----- 0.0------------
2019-06-05 24.1 30.4 16.6 13.4-- 1.0----- 0.0------------
2019-06-04 23.6 30.3 14.8 11.1-- 0.0----- 0.0------------
2019-06-03 23.1 30.4 13.6 10.5-- 0.0----- 0.0------------
2019-06-02 21.3 29.1 11.6 9.8-- 0.3----- 0.0------------
2019-06-01 20.3 27.1 12.2 11.4-- 1.0----- 0.0------------
2019-05-31 17.3 23.7 9.4 7.0-- 5.0----- 0.0------------
2019-05-30 13.0 19.8 2.4 0.2-- 0.0----- 0.0------------
2019-05-29 12.5 16.5 8.0 6.5-- 3.3----- 0.0------------
2019-05-28 15.8 21.5 12.5 10.4-- 8.0----- 1.7------------
2019-05-27 18.7 24.3 11.9 10.5-- 5.3----- 4.0------------
93.2 ms

 

Źródłem pochodzenia danych jest Instytut Meteorologii i Gospodarki Wodnej – Państwowy Instytut Badawczy. Dane Instytutu Meteorologii i Gospodarki Wodnej – Państwowego Instytutu Badawczego zostały przetworzone.

Dane źródłowe można odnaleźć na stronie https://dane.imgw.pl